Panacea, FL (32346)

8:19 AM EST on February 09, 2016 (GMT -0500)
Wakulla High School WeatherSTEM | | Change Station
CLOSE
Current Station
Personal Weather Station
Location: Crawfordville, FL
Elevation: 42 ft
Nearby Weather Stations
Active Advisory: Fire Weather Warning

Elev 42 ft 30.11 °N, 84.38 °W | Updated 14 minutes ago

Clear
Clear
40.5 °F
Feels Like 40 °F
N
0.0
Wind Variable Wind from WSW
Gusts 9.0 mph

Today
High -- | Low -- °F
--% Chance of Precip.
Yesterday
High -- | Low -- °F
Precip. -- in
Pressure 30.03 in
Visibility 10.0 miles
Clouds Clear
Windchill 40 °F
Dew Point 25 °F
Humidity 55%
Rainfall 0.00 in
Snow Depth Not available.
7:22 AM 6:21 PM
New Moon, 1% visible
METAR KTLH 091253Z 24005KT 10SM CLR 03/M05 A3003 RMK AO2 SLP169 T00281050
Pressure 30.03 in
Visibility 10.0 miles
Clouds Clear
Windchill 40 °F
Dew Point 25 °F
Humidity 55%
Rainfall 0.00 in
Snow Depth Not available.
7:22 AM 6:21 PM
New Moon, 1% visible
METAR KTLH 091253Z 24005KT 10SM CLR 03/M05 A3003 RMK AO2 SLP169 T00281050

10-Day Weather Forecast

Almanac

Astronomy

Feb. 09, 2016 Rise Set
Actual Time
Civil Twilight
Nautical Twilight
Astronomical Twilight
Moon
Length of Visible Light
Length of Day
Tomorrow will be .
, % of the Moon is Illuminated

Today's Extremes

State Highs State Lows

Community

WunderPhotos

Upload Photos

1,891,591 photos uploaded!

WunderBlog® & News

Nearby

Air Quality

  Air Quality AQ Index Pollutant
Not available.

Snow Depth

Station Depth Elevation

Earthquake Activity

City Distance Mag. Time & Date
Minimum magnitude displayed is 2.5.

Coastal Water Temperatures

Place Temperature

Stations

Nearby Weather Stations

Station Location Temp. Windchill Dew Point Humidity Wind Precip. Elev Updated Type
                   

Watches & Warnings

Fire Weather Warning
Issued: 3:15 AM EST Feb. 9, 2016 – National Weather Service

... Red flag warning remains in effect from noon today to 6 PM EST
this evening for Leon and Wakulla counties.

* Affected area... fire weather zones 017 and 027.

* Wind... sustained winds of 20 mph are likely today with gusts
upto 35 mph possible.

* Humidity... 25 percent

* erc values... rising indicating that vegetation is drying out.

* Impacts... any fires that develop will likely spread rapidly.
Outdoor burning is not recommended.

Precautionary/preparedness actions...

A red flag warning means that critical fire weather conditions
are either occurring now... .or will shortly. A combination of
strong winds... low relative humidity... and warm temperatures can
contribute to extreme fire behavior.



McDermott